Terminal Aerodrome Forecast
Issued by NWS

Home | Current Version | Previous Version | Text Only | Print | Product List | Glossary On
Versions: 1 2 3 4 5 6 7 8 9 10 11 12 13 14 15 16 17 18
585
FTUS45 KPIH 211720
TAFSUN
TAF
KSUN 211720Z 2118/2224 31008KT P6SM SCT180
     FM211900 16009KT P6SM SCT150
     FM220300 30005KT P6SM SCT015 BKN120
     FM221200 VRB05KT 4SM -SN BR OVC015
     FM221600 12007KT P6SM VCSH SCT015 OVC025=

USA.gov is the U.S. government's official web portal to all federal, state and local government web resources and services.